Canby, Iowa
Current Conditions -  °F | °C
As of 5:15 PM on Wednesday 26 Nov 2014 (Local Time) from KPRO Reporting Station
Light Snow Light Snow  
Wind Chill: 15°   Ceiling: 1100
Heat Index: 28°   Visibility: 2.5mi
Dew Point: 27°   Wind: 20mph
Humidity: 95%   Direction: 350°N
Pressure: 30.2"   Gusts: 23mph
Location:  41.4892°N, 94.4297°W
Report Text: KPRO 262315Z AUTO 35017G20KT 2 1/2SM -SN OVC011 M02/M03 A3020 RMK AO2 T10201027
Loading
Personal Weather Stations






























Interactive Weather Map New forecast layout! Learn more

10-Day Weather Forecast

Advertisements
Track Severe Weather on mobile